sensor_id;sensor_type;location;lat;lon;timestamp;pressure;altitude;pressure_sealevel;temperature;humidity
29163;BME280;20331;53.144;8.208;2023-04-25T00:05:59;100833.59;;;8.47;83.30
29163;BME280;20331;53.144;8.208;2023-04-25T00:16:23;100844.31;;;8.29;82.72
29163;BME280;20331;53.144;8.208;2023-04-25T00:26:45;100846.16;;;8.21;81.96
29163;BME280;20331;53.144;8.208;2023-04-25T00:37:06;100854.00;;;8.15;82.04
29163;BME280;20331;53.144;8.208;2023-04-25T00:47:28;100849.81;;;8.11;82.40
29163;BME280;20331;53.144;8.208;2023-04-25T00:57:51;100857.63;;;8.05;81.84
29163;BME280;20331;53.144;8.208;2023-04-25T01:08:13;100855.06;;;8.05;79.75
29163;BME280;20331;53.144;8.208;2023-04-25T01:18:35;100870.53;;;8.05;80.37
29163;BME280;20331;53.144;8.208;2023-04-25T01:28:57;100881.69;;;8.04;80.20
29163;BME280;20331;53.144;8.208;2023-04-25T01:39:19;100889.53;;;7.99;79.73
29163;BME280;20331;53.144;8.208;2023-04-25T01:49:40;100893.97;;;7.91;80.16
29163;BME280;20331;53.144;8.208;2023-04-25T02:00:03;100894.06;;;7.87;79.77
29163;BME280;20331;53.144;8.208;2023-04-25T02:10:25;100901.06;;;7.79;79.49
29163;BME280;20331;53.144;8.208;2023-04-25T02:20:46;100904.56;;;7.76;79.50
29163;BME280;20331;53.144;8.208;2023-04-25T02:31:08;100925.16;;;7.75;78.90
29163;BME280;20331;53.144;8.208;2023-04-25T02:41:29;100921.81;;;7.70;77.58
29163;BME280;20331;53.144;8.208;2023-04-25T02:51:50;100922.75;;;7.66;78.21
29163;BME280;20331;53.144;8.208;2023-04-25T03:02:12;100913.34;;;7.65;77.35
29163;BME280;20331;53.144;8.208;2023-04-25T03:12:33;100904.91;;;7.55;77.38
29163;BME280;20331;53.144;8.208;2023-04-25T03:22:55;100906.75;;;7.49;77.17
29163;BME280;20331;53.144;8.208;2023-04-25T03:33:16;100916.31;;;7.39;77.34
29163;BME280;20331;53.144;8.208;2023-04-25T03:43:37;100919.78;;;7.37;75.19
29163;BME280;20331;53.144;8.208;2023-04-25T03:53:59;100949.03;;;7.31;76.45
29163;BME280;20331;53.144;8.208;2023-04-25T04:04:20;100967.94;;;7.30;75.07
29163;BME280;20331;53.144;8.208;2023-04-25T04:14:42;100969.72;;;7.27;74.09
29163;BME280;20331;53.144;8.208;2023-04-25T04:25:04;100986.13;;;7.17;73.70
29163;BME280;20331;53.144;8.208;2023-04-25T04:35:27;100992.16;;;7.16;73.87
29163;BME280;20331;53.144;8.208;2023-04-25T04:45:48;101011.06;;;7.13;75.02
29163;BME280;20331;53.144;8.208;2023-04-25T04:56:11;101015.41;;;7.09;75.49
29163;BME280;20331;53.144;8.208;2023-04-25T05:06:32;101025.72;;;7.05;75.03
29163;BME280;20331;53.144;8.208;2023-04-25T05:16:53;101030.06;;;7.03;75.46
29163;BME280;20331;53.144;8.208;2023-04-25T05:27:16;101036.88;;;7.05;75.20
29163;BME280;20331;53.144;8.208;2023-04-25T05:37:38;101049.63;;;7.14;75.77
29163;BME280;20331;53.144;8.208;2023-04-25T05:47:59;101059.63;;;7.37;74.40
29163;BME280;20331;53.144;8.208;2023-04-25T05:58:21;101068.81;;;7.56;73.17
29163;BME280;20331;53.144;8.208;2023-04-25T06:08:42;101083.28;;;7.65;73.16
29163;BME280;20331;53.144;8.208;2023-04-25T06:19:04;101081.34;;;7.82;72.42
29163;BME280;20331;53.144;8.208;2023-04-25T06:29:25;101102.53;;;7.97;72.85
29163;BME280;20331;53.144;8.208;2023-04-25T06:39:46;101089.72;;;7.93;72.83
29163;BME280;20331;53.144;8.208;2023-04-25T06:50:08;101092.97;;;8.04;72.71
29163;BME280;20331;53.144;8.208;2023-04-25T07:00:29;101093.56;;;8.23;71.50
29163;BME280;20331;53.144;8.208;2023-04-25T07:10:51;101100.06;;;8.46;70.52
29163;BME280;20331;53.144;8.208;2023-04-25T07:21:13;101104.09;;;8.62;70.99
29163;BME280;20331;53.144;8.208;2023-04-25T07:31:34;101119.44;;;8.68;67.56
29163;BME280;20331;53.144;8.208;2023-04-25T07:41:57;101142.88;;;8.56;69.13
29163;BME280;20331;53.144;8.208;2023-04-25T07:52:19;101165.59;;;8.35;70.43
29163;BME280;20331;53.144;8.208;2023-04-25T08:02:41;101180.81;;;7.87;73.54
29163;BME280;20331;53.144;8.208;2023-04-25T08:13:02;101191.97;;;7.89;72.87
29163;BME280;20331;53.144;8.208;2023-04-25T08:23:24;101192.41;;;8.20;72.02
29163;BME280;20331;53.144;8.208;2023-04-25T08:33:45;101200.09;;;8.79;69.19
29163;BME280;20331;53.144;8.208;2023-04-25T08:44:07;101254.34;;;8.14;73.30
29163;BME280;20331;53.144;8.208;2023-04-25T08:54:31;101248.13;;;7.62;75.39
29163;BME280;20331;53.144;8.208;2023-04-25T09:04:56;101254.78;;;7.81;80.16
29163;BME280;20331;53.144;8.208;2023-04-25T09:15:18;101254.31;;;8.15;77.57
29163;BME280;20331;53.144;8.208;2023-04-25T09:25:41;101261.69;;;8.97;73.69
29163;BME280;20331;53.144;8.208;2023-04-25T09:36:05;101319.56;;;8.84;72.08
29163;BME280;20331;53.144;8.208;2023-04-25T09:46:32;101331.78;;;8.05;75.94
29163;BME280;20331;53.144;8.208;2023-04-25T09:56:54;101332.00;;;7.84;75.39
29163;BME280;20331;53.144;8.208;2023-04-25T10:07:16;101319.56;;;8.19;74.65
29163;BME280;20331;53.144;8.208;2023-04-25T10:17:37;101330.94;;;8.71;70.91
29163;BME280;20331;53.144;8.208;2023-04-25T10:28:00;101313.50;;;9.39;71.20
29163;BME280;20331;53.144;8.208;2023-04-25T10:38:24;101321.28;;;9.84;66.02
29163;BME280;20331;53.144;8.208;2023-04-25T10:48:48;101330.72;;;9.38;71.95
29163;BME280;20331;53.144;8.208;2023-04-25T10:59:16;101324.09;;;9.71;67.92
29163;BME280;20331;53.144;8.208;2023-04-25T11:09:38;101309.63;;;10.49;64.70
29163;BME280;20331;53.144;8.208;2023-04-25T11:20:00;101325.59;;;11.03;60.06
29163;BME280;20331;53.144;8.208;2023-04-25T11:30:22;101339.06;;;11.19;58.62
29163;BME280;20331;53.144;8.208;2023-04-25T11:40:43;101357.75;;;10.15;60.39
29163;BME280;20331;53.144;8.208;2023-04-25T11:51:05;101358.19;;;10.76;64.65
29163;BME280;20331;53.144;8.208;2023-04-25T12:01:27;101369.03;;;11.62;59.74
29163;BME280;20331;53.144;8.208;2023-04-25T12:11:55;101339.53;;;12.00;60.41
29163;BME280;20331;53.144;8.208;2023-04-25T12:22:21;101373.38;;;11.62;58.97
29163;BME280;20331;53.144;8.208;2023-04-25T12:32:43;101396.25;;;11.09;55.33
29163;BME280;20331;53.144;8.208;2023-04-25T12:43:04;101382.28;;;11.52;58.98
29163;BME280;20331;53.144;8.208;2023-04-25T12:53:26;101394.63;;;11.76;56.41
29163;BME280;20331;53.144;8.208;2023-04-25T13:03:47;101391.69;;;11.54;57.42
29163;BME280;20331;53.144;8.208;2023-04-25T13:14:09;101406.38;;;11.54;58.15
29163;BME280;20331;53.144;8.208;2023-04-25T13:24:30;101417.31;;;11.68;58.09
29163;BME280;20331;53.144;8.208;2023-04-25T13:34:52;101393.78;;;12.38;58.39
29163;BME280;20331;53.144;8.208;2023-04-25T13:45:14;101405.16;;;12.92;56.19
29163;BME280;20331;53.144;8.208;2023-04-25T13:55:36;101429.66;;;12.84;53.47
29163;BME280;20331;53.144;8.208;2023-04-25T14:05:58;101420.00;;;12.87;57.77
29163;BME280;20331;53.144;8.208;2023-04-25T14:16:19;101418.81;;;12.99;58.63
29163;BME280;20331;53.144;8.208;2023-04-25T14:26:41;101440.56;;;12.66;56.30
29163;BME280;20331;53.144;8.208;2023-04-25T14:37:03;101460.22;;;12.13;58.52
29163;BME280;20331;53.144;8.208;2023-04-25T14:47:25;101460.59;;;11.98;55.49
29163;BME280;20331;53.144;8.208;2023-04-25T14:57:47;101458.22;;;11.90;57.20
29163;BME280;20331;53.144;8.208;2023-04-25T15:08:08;101471.56;;;12.09;53.08
29163;BME280;20331;53.144;8.208;2023-04-25T15:18:30;101476.56;;;12.47;54.88
29163;BME280;20331;53.144;8.208;2023-04-25T15:28:51;101483.59;;;12.45;49.90
29163;BME280;20331;53.144;8.208;2023-04-25T15:39:13;101499.38;;;11.69;57.48
29163;BME280;20331;53.144;8.208;2023-04-25T15:49:35;101513.81;;;11.42;58.21
29163;BME280;20331;53.144;8.208;2023-04-25T15:59:56;101533.88;;;11.33;58.71
29163;BME280;20331;53.144;8.208;2023-04-25T16:10:18;101539.41;;;10.73;62.36
29163;BME280;20331;53.144;8.208;2023-04-25T16:20:42;101533.19;;;10.83;61.23
29163;BME280;20331;53.144;8.208;2023-04-25T16:31:03;101518.94;;;11.44;58.99
29163;BME280;20331;53.144;8.208;2023-04-25T16:41:26;101524.38;;;10.92;57.20
29163;BME280;20331;53.144;8.208;2023-04-25T16:51:48;101536.25;;;10.59;55.17
29163;BME280;20331;53.144;8.208;2023-04-25T17:02:10;101543.41;;;10.45;60.38
29163;BME280;20331;53.144;8.208;2023-04-25T17:12:33;101549.84;;;10.70;61.86
29163;BME280;20331;53.144;8.208;2023-04-25T17:22:54;101563.38;;;10.84;61.81
29163;BME280;20331;53.144;8.208;2023-04-25T17:33:17;101579.66;;;10.42;65.08
29163;BME280;20331;53.144;8.208;2023-04-25T17:43:38;101585.31;;;10.15;64.99
29163;BME280;20331;53.144;8.208;2023-04-25T17:54:00;101596.69;;;10.02;64.59
29163;BME280;20331;53.144;8.208;2023-04-25T18:04:21;101607.34;;;9.82;64.22
29163;BME280;20331;53.144;8.208;2023-04-25T18:14:43;101624.03;;;9.59;63.38
29163;BME280;20331;53.144;8.208;2023-04-25T18:25:06;101630.38;;;9.32;64.12
29163;BME280;20331;53.144;8.208;2023-04-25T18:35:29;101654.63;;;9.22;65.13
29163;BME280;20331;53.144;8.208;2023-04-25T18:45:51;101649.72;;;8.98;66.62
29163;BME280;20331;53.144;8.208;2023-04-25T18:56:12;101671.28;;;8.92;66.78
29163;BME280;20331;53.144;8.208;2023-04-25T19:06:35;101687.78;;;8.76;66.89
29163;BME280;20331;53.144;8.208;2023-04-25T19:16:56;101692.16;;;8.68;66.89
29163;BME280;20331;53.144;8.208;2023-04-25T19:27:19;101706.00;;;8.55;67.88
29163;BME280;20331;53.144;8.208;2023-04-25T19:37:41;101706.13;;;8.37;67.37
29163;BME280;20331;53.144;8.208;2023-04-25T19:48:06;101711.38;;;8.28;67.19
29163;BME280;20331;53.144;8.208;2023-04-25T19:58:30;101723.47;;;8.11;67.85
29163;BME280;20331;53.144;8.208;2023-04-25T20:08:52;101722.72;;;7.94;68.18
29163;BME280;20331;53.144;8.208;2023-04-25T20:19:13;101732.19;;;7.83;68.28
29163;BME280;20331;53.144;8.208;2023-04-25T20:29:35;101737.41;;;7.68;69.76
29163;BME280;20331;53.144;8.208;2023-04-25T20:40:01;101723.72;;;7.57;70.09
29163;BME280;20331;53.144;8.208;2023-04-25T20:50:24;101734.00;;;7.57;68.84
29163;BME280;20331;53.144;8.208;2023-04-25T21:00:46;101742.59;;;7.59;70.16
29163;BME280;20331;53.144;8.208;2023-04-25T21:11:08;101745.22;;;7.47;71.80
29163;BME280;20331;53.144;8.208;2023-04-25T21:21:30;101753.81;;;7.29;72.46
29163;BME280;20331;53.144;8.208;2023-04-25T21:31:52;101740.09;;;7.18;72.18
29163;BME280;20331;53.144;8.208;2023-04-25T21:42:13;101740.13;;;7.12;71.17
29163;BME280;20331;53.144;8.208;2023-04-25T21:52:35;101741.00;;;7.09;73.15
29163;BME280;20331;53.144;8.208;2023-04-25T22:02:57;101746.16;;;7.00;72.33
29163;BME280;20331;53.144;8.208;2023-04-25T22:13:20;101765.03;;;6.92;72.64
29163;BME280;20331;53.144;8.208;2023-04-25T22:23:42;101755.59;;;6.89;73.57
29163;BME280;20331;53.144;8.208;2023-04-25T22:34:04;101758.16;;;6.83;72.90
29163;BME280;20331;53.144;8.208;2023-04-25T22:44:26;101761.56;;;6.76;72.79
29163;BME280;20331;53.144;8.208;2023-04-25T22:54:47;101768.44;;;6.70;73.82
29163;BME280;20331;53.144;8.208;2023-04-25T23:05:09;101772.69;;;6.53;74.18
29163;BME280;20331;53.144;8.208;2023-04-25T23:15:31;101778.69;;;6.50;73.72
29163;BME280;20331;53.144;8.208;2023-04-25T23:25:52;101779.53;;;6.52;73.98
29163;BME280;20331;53.144;8.208;2023-04-25T23:36:17;101800.13;;;6.49;74.35
29163;BME280;20331;53.144;8.208;2023-04-25T23:46:42;101788.97;;;6.44;74.41
29163;BME280;20331;53.144;8.208;2023-04-25T23:57:03;101800.94;;;6.36;74.24
